Time;durP1;ratioP1;P1;durP2;ratioP2;P2;SDS_P1;SDS_P2;PMS_P1;PMS_P2;Temp;Humidity;BMP_temperature;BMP_pressure;BME280_temperature;BME280_humidity;BME280_pressure;Samples;Min_cycle;Max_cycle;Signal;HPM_P1;HPM_P2
2022/08/08 00:00:18;;;;;;;0.2;0.2;;;;;;;19.0;94.2;102190;;;;
2022/08/08 00:01:09;;;;;;;0.2;0.2;;;;;;;18.9;98.4;102190;;;;
2022/08/08 00:02:15;;;;;;;0.2;0.2;;;;;;;18.9;98.4;102190;;;;
2022/08/08 00:03:15;;;;;;;0.2;0.2;;;;;;;18.9;96.4;102190;;;;
2022/08/08 00:04:01;;;;;;;0.2;0.2;;;;;;;18.9;96.4;102190;;;;
2022/08/08 00:05:10;;;;;;;0.2;0.2;;;;;;;18.9;98.5;102200;;;;
2022/08/08 00:06:10;;;;;;;0.2;0.2;;;;;;;18.9;98.5;102200;;;;
2022/08/08 00:07:13;;;;;;;0.2;0.2;;;;;;;18.9;97.8;102200;;;;
2022/08/08 00:08:12;;;;;;;0.2;0.2;;;;;;;18.9;97.8;102200;;;;
2022/08/08 00:09:08;;;;;;;0.2;0.2;;;;;;;18.9;97.6;102200;;;;
2022/08/08 00:10:12;;;;;;;0.2;0.2;;;;;;;18.9;97.6;102200;;;;
2022/08/08 00:11:14;;;;;;;0.2;0.2;;;;;;;18.8;100.0;102200;;;;
2022/08/08 00:12:10;;;;;;;0.2;0.2;;;;;;;18.8;100.0;102200;;;;
2022/08/08 00:13:10;;;;;;;0.2;0.2;;;;;;;18.8;98.8;102190;;;;
2022/08/08 00:14:13;;;;;;;0.2;0.2;;;;;;;18.8;98.8;102190;;;;
2022/08/08 00:15:05;;;;;;;0.2;0.2;;;;;;;18.6;100.0;102200;;;;
2022/08/08 00:16:05;;;;;;;0.2;0.2;;;;;;;18.6;100.0;102200;;;;
2022/08/08 00:17:04;;;;;;;0.2;0.2;;;;;;;18.7;99.1;102200;;;;
2022/08/08 00:18:10;;;;;;;0.2;0.2;;;;;;;18.7;99.1;102200;;;;
2022/08/08 00:19:10;;;;;;;0.2;0.2;;;;;;;18.7;98.9;102200;;;;
2022/08/08 00:20:02;;;;;;;0.2;0.2;;;;;;;18.7;98.9;102200;;;;
2022/08/08 00:21:05;;;;;;;0.4;0.4;;;;;;;18.5;100.0;102200;;;;
2022/08/08 00:22:04;;;;;;;0.4;0.4;;;;;;;18.5;100.0;102200;;;;
2022/08/08 00:23:06;;;;;;;0.4;0.4;;;;;;;18.3;100.0;102200;;;;
2022/08/08 00:24:05;;;;;;;0.4;0.4;;;;;;;18.3;100.0;102200;;;;
2022/08/08 00:25:02;;;;;;;0.4;0.4;;;;;;;18.4;100.0;102200;;;;
2022/08/08 00:26:01;;;;;;;0.4;0.4;;;;;;;18.4;100.0;102200;;;;
2022/08/08 00:27:06;;;;;;;0.4;0.4;;;;;;;18.5;100.0;102200;;;;
2022/08/08 00:28:03;;;;;;;0.4;0.4;;;;;;;18.5;100.0;102200;;;;
2022/08/08 00:29:08;;;;;;;0.4;0.4;;;;;;;18.5;100.0;102200;;;;
2022/08/08 00:30:03;;;;;;;0.4;0.4;;;;;;;18.5;100.0;102200;;;;
2022/08/08 00:31:12;;;;;;;0.4;0.4;;;;;;;18.5;100.0;102200;;;;
2022/08/08 00:32:15;;;;;;;0.4;0.4;;;;;;;18.5;100.0;102200;;;;
2022/08/08 00:33:03;;;;;;;0.4;0.4;;;;;;;18.4;100.0;102200;;;;
2022/08/08 00:35:13;;;;;;;0.4;0.4;;;;;;;18.5;100.0;102200;;;;
2022/08/08 00:36:09;;;;;;;0.4;0.4;;;;;;;18.5;100.0;102200;;;;
2022/08/08 00:37:19;;;;;;;0.4;0.4;;;;;;;18.5;100.0;102200;;;;
2022/08/08 00:38:17;;;;;;;0.4;0.4;;;;;;;18.5;100.0;102200;;;;
2022/08/08 00:39:19;;;;;;;0.4;0.4;;;;;;;18.2;100.0;102200;;;;
2022/08/08 00:40:20;;;;;;;0.4;0.4;;;;;;;18.2;100.0;102200;;;;
2022/08/08 00:41:15;;;;;;;0.5;0.5;;;;;;;18.5;100.0;102200;;;;
2022/08/08 00:42:20;;;;;;;0.5;0.5;;;;;;;18.5;100.0;102200;;;;
2022/08/08 00:43:19;;;;;;;0.5;0.5;;;;;;;18.4;100.0;102200;;;;
2022/08/08 00:44:08;;;;;;;0.5;0.5;;;;;;;18.4;100.0;102200;;;;
2022/08/08 00:45:20;;;;;;;0.5;0.5;;;;;;;18.5;100.0;102200;;;;
2022/08/08 00:46:17;;;;;;;0.5;0.5;;;;;;;18.5;100.0;102200;;;;
2022/08/08 00:47:00;;;;;;;0.5;0.5;;;;;;;18.4;100.0;102200;;;;
2022/08/08 00:48:08;;;;;;;0.5;0.5;;;;;;;18.4;100.0;102200;;;;
2022/08/08 00:49:20;;;;;;;0.5;0.5;;;;;;;18.4;100.0;102200;;;;
2022/08/08 00:50:10;;;;;;;0.5;0.5;;;;;;;18.4;100.0;102200;;;;
2022/08/08 00:51:00;;;;;;;0.5;0.5;;;;;;;18.4;100.0;102190;;;;
2022/08/08 00:52:20;;;;;;;0.5;0.5;;;;;;;18.4;100.0;102190;;;;
2022/08/08 00:53:16;;;;;;;0.5;0.5;;;;;;;18.2;100.0;102190;;;;
2022/08/08 00:54:16;;;;;;;0.5;0.5;;;;;;;18.2;100.0;102190;;;;
2022/08/08 00:55:10;;;;;;;0.5;0.5;;;;;;;18.0;100.0;102190;;;;
2022/08/08 00:56:16;;;;;;;0.5;0.5;;;;;;;18.0;100.0;102190;;;;
2022/08/08 00:57:19;;;;;;;0.5;0.5;;;;;;;18.2;100.0;102190;;;;
2022/08/08 00:58:05;;;;;;;0.5;0.5;;;;;;;18.2;100.0;102190;;;;
2022/08/08 00:59:10;;;;;;;0.5;0.5;;;;;;;18.1;100.0;102190;;;;
2022/08/08 01:00:06;;;;;;;0.5;0.5;;;;;;;18.1;100.0;102190;;;;
2022/08/08 01:01:10;;;;;;;0.2;0.2;;;;;;;18.1;100.0;102190;;;;
2022/08/08 01:02:03;;;;;;;0.2;0.2;;;;;;;18.1;100.0;102190;;;;
2022/08/08 01:03:20;;;;;;;0.2;0.2;;;;;;;18.1;100.0;102180;;;;
2022/08/08 01:04:11;;;;;;;0.2;0.2;;;;;;;18.1;100.0;102180;;;;
2022/08/08 01:05:03;;;;;;;0.2;0.2;;;;;;;18.0;100.0;102190;;;;
2022/08/08 01:06:03;;;;;;;0.2;0.2;;;;;;;18.0;100.0;102190;;;;
2022/08/08 01:07:10;;;;;;;0.2;0.2;;;;;;;18.0;100.0;102180;;;;
2022/08/08 01:08:01;;;;;;;0.2;0.2;;;;;;;18.0;100.0;102180;;;;
2022/08/08 01:09:16;;;;;;;0.2;0.2;;;;;;;18.0;100.0;102180;;;;
2022/08/08 01:10:10;;;;;;;0.2;0.2;;;;;;;18.0;100.0;102180;;;;
2022/08/08 01:11:01;;;;;;;0.2;0.2;;;;;;;18.0;100.0;102180;;;;
2022/08/08 01:12:10;;;;;;;0.2;0.2;;;;;;;18.0;100.0;102180;;;;
2022/08/08 01:13:03;;;;;;;0.2;0.2;;;;;;;18.0;100.0;102180;;;;
2022/08/08 01:14:00;;;;;;;0.2;0.2;;;;;;;18.0;100.0;102180;;;;
2022/08/08 01:15:11;;;;;;;0.2;0.2;;;;;;;18.0;100.0;102180;;;;
2022/08/08 01:16:01;;;;;;;0.2;0.2;;;;;;;18.0;100.0;102180;;;;
2022/08/08 01:17:12;;;;;;;0.2;0.2;;;;;;;18.0;100.0;102180;;;;
2022/08/08 01:18:02;;;;;;;0.2;0.2;;;;;;;18.0;100.0;102180;;;;
2022/08/08 01:19:10;;;;;;;0.2;0.2;;;;;;;18.0;100.0;102180;;;;
2022/08/08 01:20:14;;;;;;;0.2;0.2;;;;;;;18.0;100.0;102180;;;;
2022/08/08 01:21:14;;;;;;;0.2;0.2;;;;;;;18.0;100.0;102180;;;;
2022/08/08 01:22:11;;;;;;;0.2;0.2;;;;;;;18.0;100.0;102180;;;;
2022/08/08 01:23:00;;;;;;;0.2;0.2;;;;;;;17.8;100.0;102180;;;;
2022/08/08 01:24:16;;;;;;;0.2;0.2;;;;;;;17.8;100.0;102180;;;;
2022/08/08 01:25:01;;;;;;;0.2;0.2;;;;;;;17.8;100.0;102180;;;;
2022/08/08 01:26:05;;;;;;;0.2;0.2;;;;;;;17.8;100.0;102180;;;;
2022/08/08 01:27:11;;;;;;;0.2;0.2;;;;;;;17.7;100.0;102180;;;;
2022/08/08 01:28:15;;;;;;;0.2;0.2;;;;;;;17.7;100.0;102180;;;;
2022/08/08 01:29:10;;;;;;;0.2;0.2;;;;;;;17.7;100.0;102180;;;;
2022/08/08 01:30:09;;;;;;;0.2;0.2;;;;;;;17.7;100.0;102180;;;;
2022/08/08 01:31:20;;;;;;;0.2;0.2;;;;;;;17.6;100.0;102190;;;;
2022/08/08 01:32:17;;;;;;;0.2;0.2;;;;;;;17.6;100.0;102190;;;;
2022/08/08 01:33:17;;;;;;;0.2;0.2;;;;;;;17.6;100.0;102180;;;;
2022/08/08 01:34:10;;;;;;;0.2;0.2;;;;;;;17.6;100.0;102180;;;;
2022/08/08 01:35:11;;;;;;;0.2;0.2;;;;;;;17.5;100.0;102190;;;;
2022/08/08 01:36:12;;;;;;;0.2;0.2;;;;;;;17.5;100.0;102190;;;;
2022/08/08 01:37:17;;;;;;;0.2;0.2;;;;;;;17.6;100.0;102190;;;;
2022/08/08 01:38:09;;;;;;;0.2;0.2;;;;;;;17.6;100.0;102190;;;;
2022/08/08 01:39:20;;;;;;;0.2;0.2;;;;;;;17.4;100.0;102190;;;;
2022/08/08 01:40:14;;;;;;;0.2;0.2;;;;;;;17.4;100.0;102190;;;;
2022/08/08 01:41:04;;;;;;;0.9;0.9;;;;;;;17.5;100.0;102180;;;;
2022/08/08 01:42:15;;;;;;;0.9;0.9;;;;;;;17.5;100.0;102180;;;;
2022/08/08 01:43:05;;;;;;;0.9;0.9;;;;;;;17.5;100.0;102180;;;;
2022/08/08 01:44:10;;;;;;;0.9;0.9;;;;;;;17.5;100.0;102180;;;;
2022/08/08 01:45:14;;;;;;;0.9;0.9;;;;;;;17.2;100.0;102180;;;;
2022/08/08 01:46:09;;;;;;;0.9;0.9;;;;;;;17.2;100.0;102180;;;;
2022/08/08 01:47:19;;;;;;;0.9;0.9;;;;;;;17.1;100.0;102180;;;;
2022/08/08 01:48:18;;;;;;;0.9;0.9;;;;;;;17.1;100.0;102180;;;;
2022/08/08 01:49:14;;;;;;;0.9;0.9;;;;;;;17.2;100.0;102180;;;;
2022/08/08 01:50:17;;;;;;;0.9;0.9;;;;;;;17.2;100.0;102180;;;;
2022/08/08 01:51:20;;;;;;;0.9;0.9;;;;;;;17.4;100.0;102180;;;;
2022/08/08 01:52:13;;;;;;;0.9;0.9;;;;;;;17.4;100.0;102180;;;;
2022/08/08 01:53:11;;;;;;;0.9;0.9;;;;;;;17.4;100.0;102180;;;;
2022/08/08 01:54:20;;;;;;;0.9;0.9;;;;;;;17.4;100.0;102180;;;;
2022/08/08 01:55:20;;;;;;;0.9;0.9;;;;;;;17.3;100.0;102180;;;;
2022/08/08 01:56:16;;;;;;;0.9;0.9;;;;;;;17.3;100.0;102180;;;;
2022/08/08 01:57:17;;;;;;;0.9;0.9;;;;;;;17.4;100.0;102190;;;;
2022/08/08 01:58:13;;;;;;;0.9;0.9;;;;;;;17.4;100.0;102190;;;;
2022/08/08 01:59:11;;;;;;;0.9;0.9;;;;;;;17.4;100.0;102180;;;;
2022/08/08 02:00:03;;;;;;;0.9;0.9;;;;;;;17.4;100.0;102180;;;;
2022/08/08 02:01:01;;;;;;;0.3;0.3;;;;;;;17.3;100.0;102180;;;;
2022/08/08 02:02:10;;;;;;;0.3;0.3;;;;;;;17.3;100.0;102180;;;;
2022/08/08 02:03:20;;;;;;;0.3;0.3;;;;;;;17.4;100.0;102180;;;;
2022/08/08 02:04:09;;;;;;;0.3;0.3;;;;;;;17.4;100.0;102180;;;;
2022/08/08 02:05:10;;;;;;;0.3;0.3;;;;;;;17.4;100.0;102180;;;;
2022/08/08 02:06:07;;;;;;;0.3;0.3;;;;;;;17.4;100.0;102180;;;;
2022/08/08 02:07:01;;;;;;;0.3;0.3;;;;;;;17.3;100.0;102180;;;;
2022/08/08 02:08:10;;;;;;;0.3;0.3;;;;;;;17.3;100.0;102180;;;;
2022/08/08 02:09:12;;;;;;;0.3;0.3;;;;;;;17.4;100.0;102190;;;;
2022/08/08 02:10:12;;;;;;;0.3;0.3;;;;;;;17.4;100.0;102190;;;;
2022/08/08 02:11:20;;;;;;;0.3;0.3;;;;;;;17.3;100.0;102190;;;;
2022/08/08 02:12:13;;;;;;;0.3;0.3;;;;;;;17.3;100.0;102190;;;;
2022/08/08 02:13:04;;;;;;;0.3;0.3;;;;;;;17.2;100.0;102190;;;;
2022/08/08 02:14:03;;;;;;;0.3;0.3;;;;;;;17.2;100.0;102190;;;;
2022/08/08 02:15:11;;;;;;;0.3;0.3;;;;;;;17.2;100.0;102190;;;;
2022/08/08 02:16:20;;;;;;;0.3;0.3;;;;;;;17.2;100.0;102190;;;;
2022/08/08 02:17:10;;;;;;;0.3;0.3;;;;;;;17.2;100.0;102180;;;;
2022/08/08 02:18:10;;;;;;;0.3;0.3;;;;;;;17.2;100.0;102180;;;;
2022/08/08 02:19:20;;;;;;;0.3;0.3;;;;;;;17.3;100.0;102180;;;;
2022/08/08 02:20:10;;;;;;;0.3;0.3;;;;;;;17.3;100.0;102180;;;;
2022/08/08 02:23:16;;;;;;;0.3;0.3;;;;;;;17.2;100.0;102180;;;;
2022/08/08 02:24:15;;;;;;;0.3;0.3;;;;;;;17.2;100.0;102180;;;;
2022/08/08 02:25:11;;;;;;;0.3;0.3;;;;;;;17.3;100.0;102180;;;;
2022/08/08 02:26:07;;;;;;;0.3;0.3;;;;;;;17.3;100.0;102180;;;;
2022/08/08 02:27:11;;;;;;;0.3;0.3;;;;;;;17.3;100.0;102180;;;;
2022/08/08 02:28:01;;;;;;;0.3;0.3;;;;;;;17.3;100.0;102180;;;;
2022/08/08 02:29:18;;;;;;;0.3;0.3;;;;;;;17.2;100.0;102180;;;;
2022/08/08 02:30:02;;;;;;;0.3;0.3;;;;;;;17.2;100.0;102180;;;;
2022/08/08 02:31:18;;;;;;;0.3;0.3;;;;;;;17.1;100.0;102180;;;;
2022/08/08 02:32:05;;;;;;;0.3;0.3;;;;;;;17.1;100.0;102180;;;;
2022/08/08 02:33:07;;;;;;;0.3;0.3;;;;;;;17.0;100.0;102180;;;;
2022/08/08 02:34:15;;;;;;;0.3;0.3;;;;;;;17.0;100.0;102180;;;;
2022/08/08 02:35:11;;;;;;;0.3;0.3;;;;;;;17.1;100.0;102180;;;;
2022/08/08 02:36:05;;;;;;;0.3;0.3;;;;;;;17.1;100.0;102180;;;;
2022/08/08 02:37:20;;;;;;;0.3;0.3;;;;;;;17.1;100.0;102180;;;;
2022/08/08 02:38:09;;;;;;;0.3;0.3;;;;;;;17.1;100.0;102180;;;;
2022/08/08 02:39:13;;;;;;;0.3;0.3;;;;;;;17.1;100.0;102190;;;;
2022/08/08 02:40:12;;;;;;;0.3;0.3;;;;;;;17.1;100.0;102190;;;;
2022/08/08 02:41:17;;;;;;;0.6;0.6;;;;;;;17.1;100.0;102190;;;;
2022/08/08 02:42:10;;;;;;;0.6;0.6;;;;;;;17.1;100.0;102190;;;;
2022/08/08 02:43:20;;;;;;;0.6;0.6;;;;;;;17.0;100.0;102180;;;;
2022/08/08 02:44:24;;;;;;;0.6;0.6;;;;;;;17.0;100.0;102180;;;;
2022/08/08 02:45:20;;;;;;;0.6;0.6;;;;;;;17.0;100.0;102180;;;;
2022/08/08 02:46:00;;;;;;;0.6;0.6;;;;;;;17.0;100.0;102180;;;;
2022/08/08 02:47:02;;;;;;;0.6;0.6;;;;;;;17.0;100.0;102180;;;;
2022/08/08 02:48:00;;;;;;;0.6;0.6;;;;;;;17.0;100.0;102180;;;;
2022/08/08 02:49:13;;;;;;;0.6;0.6;;;;;;;16.7;100.0;102180;;;;
2022/08/08 02:50:01;;;;;;;0.6;0.6;;;;;;;16.7;100.0;102180;;;;
2022/08/08 02:51:12;;;;;;;0.6;0.6;;;;;;;16.8;100.0;102180;;;;
2022/08/08 02:52:11;;;;;;;0.6;0.6;;;;;;;16.8;100.0;102180;;;;
2022/08/08 02:53:11;;;;;;;0.6;0.6;;;;;;;16.8;100.0;102180;;;;
2022/08/08 02:54:13;;;;;;;0.6;0.6;;;;;;;16.8;100.0;102180;;;;
2022/08/08 02:55:02;;;;;;;0.6;0.6;;;;;;;16.9;100.0;102180;;;;
2022/08/08 02:56:10;;;;;;;0.6;0.6;;;;;;;16.9;100.0;102180;;;;
2022/08/08 02:57:17;;;;;;;0.6;0.6;;;;;;;16.9;100.0;102180;;;;
2022/08/08 02:58:07;;;;;;;0.6;0.6;;;;;;;16.9;100.0;102180;;;;
2022/08/08 02:59:13;;;;;;;0.6;0.6;;;;;;;17.0;100.0;102180;;;;
2022/08/08 03:00:20;;;;;;;0.8;0.8;;;;;;;17.0;100.0;102180;;;;
2022/08/08 03:01:15;;;;;;;0.8;0.8;;;;;;;17.0;100.0;102180;;;;
2022/08/08 03:02:20;;;;;;;0.8;0.8;;;;;;;17.0;100.0;102180;;;;
2022/08/08 03:03:10;;;;;;;0.8;0.8;;;;;;;16.8;100.0;102180;;;;
2022/08/08 03:04:20;;;;;;;0.8;0.8;;;;;;;16.8;100.0;102180;;;;
2022/08/08 03:05:09;;;;;;;0.8;0.8;;;;;;;16.8;100.0;102180;;;;
2022/08/08 03:06:07;;;;;;;0.8;0.8;;;;;;;16.8;100.0;102180;;;;
2022/08/08 03:07:07;;;;;;;0.8;0.8;;;;;;;16.6;100.0;102180;;;;
2022/08/08 03:08:10;;;;;;;0.8;0.8;;;;;;;16.6;100.0;102180;;;;
2022/08/08 03:09:00;;;;;;;0.8;0.8;;;;;;;16.7;100.0;102180;;;;
2022/08/08 03:10:00;;;;;;;0.8;0.8;;;;;;;16.7;100.0;102180;;;;
2022/08/08 03:11:20;;;;;;;0.8;0.8;;;;;;;16.7;100.0;102180;;;;
2022/08/08 03:12:14;;;;;;;0.8;0.8;;;;;;;16.7;100.0;102180;;;;
2022/08/08 03:13:20;;;;;;;0.8;0.8;;;;;;;16.7;100.0;102180;;;;
2022/08/08 03:14:17;;;;;;;0.8;0.8;;;;;;;16.7;100.0;102180;;;;
2022/08/08 03:15:15;;;;;;;0.8;0.8;;;;;;;16.7;100.0;102190;;;;
2022/08/08 03:16:11;;;;;;;0.8;0.8;;;;;;;16.7;100.0;102190;;;;
2022/08/08 03:17:04;;;;;;;0.8;0.8;;;;;;;16.6;100.0;102190;;;;
2022/08/08 03:18:07;;;;;;;0.8;0.8;;;;;;;16.6;100.0;102190;;;;
2022/08/08 03:19:10;;;;;;;0.8;0.8;;;;;;;16.6;100.0;102190;;;;
2022/08/08 03:20:05;;;;;;;0.8;0.8;;;;;;;16.6;100.0;102190;;;;
2022/08/08 03:21:01;;;;;;;0.4;0.4;;;;;;;16.7;100.0;102190;;;;
2022/08/08 03:22:00;;;;;;;0.4;0.4;;;;;;;16.7;100.0;102190;;;;
2022/08/08 03:23:00;;;;;;;0.4;0.4;;;;;;;16.7;100.0;102190;;;;
2022/08/08 03:24:02;;;;;;;0.4;0.4;;;;;;;16.7;100.0;102190;;;;
2022/08/08 03:25:02;;;;;;;0.4;0.4;;;;;;;16.7;100.0;102190;;;;
2022/08/08 03:26:00;;;;;;;0.4;0.4;;;;;;;16.7;100.0;102190;;;;
2022/08/08 03:27:12;;;;;;;0.4;0.4;;;;;;;16.6;100.0;102200;;;;
2022/08/08 03:28:02;;;;;;;0.4;0.4;;;;;;;16.6;100.0;102200;;;;
2022/08/08 03:29:03;;;;;;;0.4;0.4;;;;;;;16.5;100.0;102200;;;;
2022/08/08 03:30:03;;;;;;;0.4;0.4;;;;;;;16.5;100.0;102200;;;;
2022/08/08 03:33:17;;;;;;;0.4;0.4;;;;;;;16.5;100.0;102200;;;;
2022/08/08 03:34:01;;;;;;;0.4;0.4;;;;;;;16.5;100.0;102200;;;;
2022/08/08 03:35:00;;;;;;;0.4;0.4;;;;;;;16.5;100.0;102200;;;;
2022/08/08 03:36:01;;;;;;;0.4;0.4;;;;;;;16.5;100.0;102200;;;;
2022/08/08 03:37:10;;;;;;;0.4;0.4;;;;;;;16.5;100.0;102200;;;;
2022/08/08 03:38:10;;;;;;;0.4;0.4;;;;;;;16.5;100.0;102200;;;;
2022/08/08 03:39:10;;;;;;;0.4;0.4;;;;;;;16.4;100.0;102210;;;;
2022/08/08 03:40:03;;;;;;;0.4;0.4;;;;;;;16.4;100.0;102210;;;;
2022/08/08 03:41:10;;;;;;;0.5;0.5;;;;;;;16.5;100.0;102210;;;;
2022/08/08 03:42:10;;;;;;;0.5;0.5;;;;;;;16.5;100.0;102210;;;;
2022/08/08 03:43:11;;;;;;;0.5;0.5;;;;;;;16.4;100.0;102210;;;;
2022/08/08 03:44:00;;;;;;;0.5;0.5;;;;;;;16.4;100.0;102210;;;;
2022/08/08 03:45:02;;;;;;;0.5;0.5;;;;;;;16.3;100.0;102200;;;;
2022/08/08 03:46:09;;;;;;;0.5;0.5;;;;;;;16.3;100.0;102200;;;;
2022/08/08 03:47:10;;;;;;;0.5;0.5;;;;;;;16.4;100.0;102210;;;;
2022/08/08 03:48:07;;;;;;;0.5;0.5;;;;;;;16.4;100.0;102210;;;;
2022/08/08 03:49:11;;;;;;;0.5;0.5;;;;;;;16.3;100.0;102210;;;;
2022/08/08 03:50:02;;;;;;;0.5;0.5;;;;;;;16.3;100.0;102210;;;;
2022/08/08 03:51:00;;;;;;;0.5;0.5;;;;;;;16.4;100.0;102210;;;;
2022/08/08 03:52:00;;;;;;;0.5;0.5;;;;;;;16.4;100.0;102210;;;;
2022/08/08 03:53:01;;;;;;;0.5;0.5;;;;;;;16.4;100.0;102210;;;;
2022/08/08 03:54:03;;;;;;;0.5;0.5;;;;;;;16.4;100.0;102210;;;;
2022/08/08 03:55:10;;;;;;;0.5;0.5;;;;;;;16.2;100.0;102210;;;;
2022/08/08 03:56:09;;;;;;;0.5;0.5;;;;;;;16.2;100.0;102210;;;;
2022/08/08 03:57:10;;;;;;;0.5;0.5;;;;;;;16.2;100.0;102210;;;;
2022/08/08 03:58:10;;;;;;;0.5;0.5;;;;;;;16.2;100.0;102210;;;;
2022/08/08 03:59:00;;;;;;;0.5;0.5;;;;;;;16.2;100.0;102210;;;;
2022/08/08 04:00:11;;;;;;;0.6;0.6;;;;;;;16.2;100.0;102210;;;;
2022/08/08 04:01:10;;;;;;;0.6;0.6;;;;;;;16.2;100.0;102210;;;;
2022/08/08 04:02:10;;;;;;;0.6;0.6;;;;;;;16.2;100.0;102210;;;;
2022/08/08 04:03:04;;;;;;;0.6;0.6;;;;;;;16.2;100.0;102210;;;;
2022/08/08 04:04:02;;;;;;;0.6;0.6;;;;;;;16.2;100.0;102210;;;;
2022/08/08 04:05:10;;;;;;;0.6;0.6;;;;;;;16.3;100.0;102210;;;;
2022/08/08 04:06:05;;;;;;;0.6;0.6;;;;;;;16.3;100.0;102210;;;;
2022/08/08 04:07:01;;;;;;;0.6;0.6;;;;;;;16.2;100.0;102220;;;;
2022/08/08 04:08:01;;;;;;;0.6;0.6;;;;;;;16.2;100.0;102220;;;;
2022/08/08 04:09:11;;;;;;;0.6;0.6;;;;;;;16.2;100.0;102220;;;;
2022/08/08 04:10:05;;;;;;;0.6;0.6;;;;;;;16.2;100.0;102220;;;;
2022/08/08 04:11:01;;;;;;;0.6;0.6;;;;;;;16.2;100.0;102220;;;;
2022/08/08 04:12:01;;;;;;;0.6;0.6;;;;;;;16.2;100.0;102220;;;;
2022/08/08 04:13:08;;;;;;;0.6;0.6;;;;;;;16.2;100.0;102220;;;;
2022/08/08 04:14:10;;;;;;;0.6;0.6;;;;;;;16.2;100.0;102220;;;;
2022/08/08 04:15:00;;;;;;;0.6;0.6;;;;;;;16.2;100.0;102220;;;;
2022/08/08 04:16:05;;;;;;;0.6;0.6;;;;;;;16.2;100.0;102220;;;;
2022/08/08 04:17:00;;;;;;;0.6;0.6;;;;;;;16.2;100.0;102220;;;;
2022/08/08 04:18:02;;;;;;;0.6;0.6;;;;;;;16.2;100.0;102220;;;;
2022/08/08 04:19:02;;;;;;;0.6;0.6;;;;;;;16.1;100.0;102220;;;;
2022/08/08 04:20:04;;;;;;;0.4;0.4;;;;;;;16.1;100.0;102220;;;;
2022/08/08 04:21:01;;;;;;;0.4;0.4;;;;;;;16.0;100.0;102220;;;;
2022/08/08 04:22:01;;;;;;;0.4;0.4;;;;;;;16.0;100.0;102220;;;;
2022/08/08 04:23:07;;;;;;;0.4;0.4;;;;;;;16.0;100.0;102210;;;;
2022/08/08 04:24:10;;;;;;;0.4;0.4;;;;;;;16.0;100.0;102210;;;;
2022/08/08 04:25:02;;;;;;;0.4;0.4;;;;;;;16.0;100.0;102210;;;;
2022/08/08 04:26:09;;;;;;;0.4;0.4;;;;;;;16.0;100.0;102210;;;;
2022/08/08 04:27:00;;;;;;;0.4;0.4;;;;;;;16.0;100.0;102220;;;;
2022/08/08 04:28:10;;;;;;;0.4;0.4;;;;;;;16.0;100.0;102220;;;;
2022/08/08 04:29:01;;;;;;;0.4;0.4;;;;;;;16.0;100.0;102210;;;;
2022/08/08 04:30:11;;;;;;;0.4;0.4;;;;;;;16.0;100.0;102210;;;;
2022/08/08 04:31:06;;;;;;;0.4;0.4;;;;;;;16.0;100.0;102220;;;;
2022/08/08 04:32:00;;;;;;;0.4;0.4;;;;;;;16.0;100.0;102220;;;;
2022/08/08 04:33:00;;;;;;;0.4;0.4;;;;;;;16.0;100.0;102220;;;;
2022/08/08 04:34:01;;;;;;;0.4;0.4;;;;;;;16.0;100.0;102220;;;;
2022/08/08 04:35:01;;;;;;;0.4;0.4;;;;;;;15.9;100.0;102230;;;;
2022/08/08 04:36:00;;;;;;;0.4;0.4;;;;;;;15.9;100.0;102230;;;;
2022/08/08 04:37:04;;;;;;;0.4;0.4;;;;;;;15.8;100.0;102230;;;;
2022/08/08 04:38:00;;;;;;;0.4;0.4;;;;;;;15.8;100.0;102230;;;;
2022/08/08 04:39:10;;;;;;;0.4;0.4;;;;;;;15.9;100.0;102230;;;;
2022/08/08 04:40:07;;;;;;;0.3;0.3;;;;;;;15.9;100.0;102230;;;;
2022/08/08 04:41:00;;;;;;;0.3;0.3;;;;;;;16.0;100.0;102240;;;;
2022/08/08 04:42:01;;;;;;;0.3;0.3;;;;;;;16.0;100.0;102240;;;;
2022/08/08 04:43:01;;;;;;;0.3;0.3;;;;;;;16.1;100.0;102230;;;;
2022/08/08 04:44:00;;;;;;;0.3;0.3;;;;;;;16.1;100.0;102230;;;;
2022/08/08 04:45:00;;;;;;;0.3;0.3;;;;;;;16.0;100.0;102240;;;;
2022/08/08 04:46:00;;;;;;;0.3;0.3;;;;;;;16.0;100.0;102240;;;;
2022/08/08 04:47:00;;;;;;;0.3;0.3;;;;;;;16.0;100.0;102240;;;;
2022/08/08 04:48:00;;;;;;;0.3;0.3;;;;;;;16.0;100.0;102240;;;;
2022/08/08 04:49:00;;;;;;;0.3;0.3;;;;;;;16.1;100.0;102250;;;;
2022/08/08 04:50:05;;;;;;;0.3;0.3;;;;;;;16.1;100.0;102250;;;;
2022/08/08 04:51:00;;;;;;;0.3;0.3;;;;;;;16.1;100.0;102250;;;;
2022/08/08 04:52:04;;;;;;;0.3;0.3;;;;;;;16.1;100.0;102250;;;;
2022/08/08 04:53:10;;;;;;;0.3;0.3;;;;;;;16.1;100.0;102250;;;;
2022/08/08 04:54:10;;;;;;;0.3;0.3;;;;;;;16.1;100.0;102250;;;;
2022/08/08 04:55:01;;;;;;;0.3;0.3;;;;;;;15.9;100.0;102250;;;;
2022/08/08 04:56:00;;;;;;;0.3;0.3;;;;;;;15.9;100.0;102250;;;;
2022/08/08 04:57:00;;;;;;;0.3;0.3;;;;;;;15.9;100.0;102260;;;;
2022/08/08 04:58:00;;;;;;;0.3;0.3;;;;;;;15.9;100.0;102260;;;;
2022/08/08 04:59:00;;;;;;;0.3;0.3;;;;;;;16.0;100.0;102260;;;;
2022/08/08 05:00:02;;;;;;;0.6;0.6;;;;;;;16.0;100.0;102260;;;;
2022/08/08 05:01:08;;;;;;;0.6;0.6;;;;;;;16.0;100.0;102260;;;;
2022/08/08 05:02:01;;;;;;;0.6;0.6;;;;;;;16.0;100.0;102260;;;;
2022/08/08 05:03:00;;;;;;;0.6;0.6;;;;;;;15.9;100.0;102260;;;;
2022/08/08 05:04:10;;;;;;;0.6;0.6;;;;;;;15.9;100.0;102260;;;;
2022/08/08 05:05:00;;;;;;;0.6;0.6;;;;;;;16.0;100.0;102270;;;;
2022/08/08 05:06:10;;;;;;;0.6;0.6;;;;;;;16.0;100.0;102270;;;;
2022/08/08 05:07:00;;;;;;;0.6;0.6;;;;;;;16.0;100.0;102270;;;;
2022/08/08 05:08:02;;;;;;;0.6;0.6;;;;;;;16.0;100.0;102270;;;;
2022/08/08 05:09:06;;;;;;;0.6;0.6;;;;;;;16.1;100.0;102270;;;;
2022/08/08 05:10:01;;;;;;;0.6;0.6;;;;;;;16.1;100.0;102270;;;;
2022/08/08 05:11:01;;;;;;;0.6;0.6;;;;;;;16.1;100.0;102270;;;;
2022/08/08 05:12:02;;;;;;;0.6;0.6;;;;;;;16.1;100.0;102270;;;;
2022/08/08 05:13:02;;;;;;;0.6;0.6;;;;;;;16.1;100.0;102270;;;;
2022/08/08 05:14:02;;;;;;;0.6;0.6;;;;;;;16.1;100.0;102270;;;;
2022/08/08 05:15:04;;;;;;;0.6;0.6;;;;;;;16.0;100.0;102270;;;;
2022/08/08 05:16:10;;;;;;;0.6;0.6;;;;;;;16.0;100.0;102270;;;;
2022/08/08 05:17:03;;;;;;;0.6;0.6;;;;;;;16.0;100.0;102270;;;;
2022/08/08 05:18:00;;;;;;;0.6;0.6;;;;;;;16.0;100.0;102270;;;;
2022/08/08 05:19:00;;;;;;;0.6;0.6;;;;;;;16.1;100.0;102270;;;;
2022/08/08 05:20:10;;;;;;;0.4;0.4;;;;;;;16.1;100.0;102270;;;;
2022/08/08 05:21:07;;;;;;;0.4;0.4;;;;;;;16.2;100.0;102270;;;;
2022/08/08 05:22:00;;;;;;;0.4;0.4;;;;;;;16.2;100.0;102270;;;;
2022/08/08 05:23:00;;;;;;;0.4;0.4;;;;;;;16.1;100.0;102270;;;;
2022/08/08 05:24:08;;;;;;;0.4;0.4;;;;;;;16.1;100.0;102270;;;;
2022/08/08 05:25:00;;;;;;;0.4;0.4;;;;;;;16.2;100.0;102270;;;;
2022/08/08 05:26:01;;;;;;;0.4;0.4;;;;;;;16.2;100.0;102270;;;;
2022/08/08 05:27:00;;;;;;;0.4;0.4;;;;;;;16.2;100.0;102260;;;;
2022/08/08 05:28:00;;;;;;;0.4;0.4;;;;;;;16.2;100.0;102260;;;;
2022/08/08 05:29:07;;;;;;;0.4;0.4;;;;;;;16.2;100.0;102270;;;;
2022/08/08 05:30:01;;;;;;;0.4;0.4;;;;;;;16.2;100.0;102270;;;;
2022/08/08 05:31:10;;;;;;;0.4;0.4;;;;;;;16.3;100.0;102270;;;;
2022/08/08 05:32:05;;;;;;;0.4;0.4;;;;;;;16.3;100.0;102270;;;;
2022/08/08 05:33:03;;;;;;;0.4;0.4;;;;;;;16.3;100.0;102270;;;;
2022/08/08 05:34:01;;;;;;;0.4;0.4;;;;;;;16.3;100.0;102270;;;;
2022/08/08 05:35:05;;;;;;;0.4;0.4;;;;;;;16.4;100.0;102260;;;;
2022/08/08 05:36:01;;;;;;;0.4;0.4;;;;;;;16.4;100.0;102260;;;;
2022/08/08 05:37:07;;;;;;;0.4;0.4;;;;;;;16.3;100.0;102260;;;;
2022/08/08 05:38:04;;;;;;;0.4;0.4;;;;;;;16.3;100.0;102260;;;;
2022/08/08 05:39:03;;;;;;;0.4;0.4;;;;;;;16.2;100.0;102270;;;;
2022/08/08 05:40:04;;;;;;;0.7;0.7;;;;;;;16.2;100.0;102270;;;;
2022/08/08 05:41:02;;;;;;;0.7;0.7;;;;;;;16.3;100.0;102270;;;;
2022/08/08 05:42:00;;;;;;;0.7;0.7;;;;;;;16.3;100.0;102270;;;;
2022/08/08 05:43:03;;;;;;;0.7;0.7;;;;;;;16.4;100.0;102280;;;;
2022/08/08 05:44:10;;;;;;;0.7;0.7;;;;;;;16.4;100.0;102280;;;;
2022/08/08 05:45:12;;;;;;;0.7;0.7;;;;;;;16.5;100.0;102280;;;;
2022/08/08 05:46:04;;;;;;;0.7;0.7;;;;;;;16.5;100.0;102280;;;;
2022/08/08 05:47:04;;;;;;;0.7;0.7;;;;;;;16.5;100.0;102280;;;;
2022/08/08 05:48:09;;;;;;;0.7;0.7;;;;;;;16.5;100.0;102280;;;;
2022/08/08 05:49:02;;;;;;;0.7;0.7;;;;;;;16.5;100.0;102280;;;;
2022/08/08 05:50:05;;;;;;;0.7;0.7;;;;;;;16.5;100.0;102280;;;;
2022/08/08 05:51:10;;;;;;;0.7;0.7;;;;;;;16.4;100.0;102280;;;;
2022/08/08 05:52:00;;;;;;;0.7;0.7;;;;;;;16.4;100.0;102280;;;;
2022/08/08 05:53:10;;;;;;;0.7;0.7;;;;;;;16.5;100.0;102280;;;;
2022/08/08 05:54:10;;;;;;;0.7;0.7;;;;;;;16.5;100.0;102280;;;;
2022/08/08 05:55:08;;;;;;;0.7;0.7;;;;;;;16.6;100.0;102280;;;;
2022/08/08 05:56:10;;;;;;;0.7;0.7;;;;;;;16.6;100.0;102280;;;;
2022/08/08 05:57:04;;;;;;;0.7;0.7;;;;;;;16.6;100.0;102290;;;;
2022/08/08 05:58:10;;;;;;;0.7;0.7;;;;;;;16.6;100.0;102290;;;;
2022/08/08 05:59:04;;;;;;;0.7;0.7;;;;;;;16.7;100.0;102290;;;;
2022/08/08 06:00:12;;;;;;;0.4;0.4;;;;;;;16.7;100.0;102290;;;;
2022/08/08 06:01:05;;;;;;;0.4;0.4;;;;;;;16.7;100.0;102290;;;;
2022/08/08 06:02:00;;;;;;;0.4;0.4;;;;;;;16.7;100.0;102290;;;;
2022/08/08 06:03:09;;;;;;;0.4;0.4;;;;;;;16.6;100.0;102280;;;;
2022/08/08 06:04:08;;;;;;;0.4;0.4;;;;;;;16.6;100.0;102280;;;;
2022/08/08 06:05:06;;;;;;;0.4;0.4;;;;;;;16.7;100.0;102280;;;;
2022/08/08 06:06:06;;;;;;;0.4;0.4;;;;;;;16.7;100.0;102280;;;;
2022/08/08 06:07:02;;;;;;;0.4;0.4;;;;;;;16.7;100.0;102290;;;;
2022/08/08 06:08:09;;;;;;;0.4;0.4;;;;;;;16.7;100.0;102290;;;;
2022/08/08 06:09:13;;;;;;;0.4;0.4;;;;;;;16.9;100.0;102280;;;;
2022/08/08 06:10:02;;;;;;;0.4;0.4;;;;;;;16.9;100.0;102280;;;;
2022/08/08 06:11:01;;;;;;;0.4;0.4;;;;;;;16.9;100.0;102290;;;;
2022/08/08 06:12:01;;;;;;;0.4;0.4;;;;;;;16.9;100.0;102290;;;;
2022/08/08 06:13:01;;;;;;;0.4;0.4;;;;;;;16.9;100.0;102290;;;;
2022/08/08 06:14:04;;;;;;;0.4;0.4;;;;;;;16.9;100.0;102290;;;;
2022/08/08 06:15:02;;;;;;;0.4;0.4;;;;;;;17.0;100.0;102290;;;;
2022/08/08 06:16:03;;;;;;;0.4;0.4;;;;;;;17.0;100.0;102290;;;;
2022/08/08 06:17:02;;;;;;;0.4;0.4;;;;;;;17.0;100.0;102290;;;;
2022/08/08 06:18:10;;;;;;;0.4;0.4;;;;;;;17.0;100.0;102290;;;;
2022/08/08 06:20:01;;;;;;;1.0;1.0;;;;;;;17.1;100.0;102290;;;;
2022/08/08 06:21:10;;;;;;;1.0;1.0;;;;;;;17.1;100.0;102300;;;;
2022/08/08 06:22:00;;;;;;;1.0;1.0;;;;;;;17.1;100.0;102300;;;;
2022/08/08 06:23:02;;;;;;;1.0;1.0;;;;;;;17.2;100.0;102290;;;;
2022/08/08 06:24:10;;;;;;;1.0;1.0;;;;;;;17.2;100.0;102290;;;;
2022/08/08 06:25:01;;;;;;;1.0;1.0;;;;;;;17.3;100.0;102300;;;;
2022/08/08 06:26:13;;;;;;;1.0;1.0;;;;;;;17.3;100.0;102300;;;;
2022/08/08 06:27:04;;;;;;;1.0;1.0;;;;;;;17.4;100.0;102300;;;;
2022/08/08 06:28:02;;;;;;;1.0;1.0;;;;;;;17.4;100.0;102300;;;;